createdAt,value
2022-10-18T00:00:27.263Z,93545.16
2022-10-18T00:03:30.378Z,93547.25
2022-10-18T00:06:34.483Z,93550.00
2022-10-18T00:09:37.811Z,93545.47
2022-10-18T00:12:42.145Z,93550.31
2022-10-18T00:15:54.042Z,93555.31
2022-10-18T00:18:57.587Z,93545.34
2022-10-18T00:22:01.292Z,93554.69
2022-10-18T00:25:06.560Z,93549.28
2022-10-18T00:28:10.706Z,93546.16
2022-10-18T00:31:26.191Z,93553.94
2022-10-18T00:34:30.460Z,93539.63
2022-10-18T00:37:34.239Z,93549.97
2022-10-18T00:40:37.310Z,93546.00
2022-10-18T00:43:54.755Z,93538.91
2022-10-18T00:47:04.038Z,93540.03
2022-10-18T00:50:09.729Z,93529.56
2022-10-18T00:53:18.638Z,93515.03
2022-10-18T00:56:21.979Z,93512.88
2022-10-18T00:59:26.724Z,93506.56
2022-10-18T01:02:30.757Z,93496.19
2022-10-18T01:05:39.487Z,93507.56
2022-10-18T01:09:11.476Z,93521.63
2022-10-18T01:12:25.447Z,93522.00
2022-10-18T01:16:06.008Z,93529.50
2022-10-18T01:23:22.005Z,93536.06
2022-10-18T01:26:31.437Z,93530.13
2022-10-18T01:29:59.714Z,93522.75
2022-10-18T01:33:20.972Z,93508.22
2022-10-18T01:36:34.789Z,93501.81
2022-10-18T01:39:41.124Z,93500.34
2022-10-18T01:42:47.124Z,93496.22
2022-10-18T01:45:51.973Z,93507.00
2022-10-18T01:48:57.128Z,93498.16
2022-10-18T01:52:01.230Z,93495.31
2022-10-18T01:55:05.817Z,93496.03
2022-10-18T01:58:27.909Z,93497.66
2022-10-18T02:01:53.411Z,93493.03
2022-10-18T02:05:29.629Z,93490.69
2022-10-18T02:08:34.838Z,93488.94
2022-10-18T02:11:41.470Z,93470.88
2022-10-18T02:14:46.218Z,93476.72
2022-10-18T02:17:51.383Z,93473.28
2022-10-18T02:20:55.783Z,93451.97
2022-10-18T02:24:01.881Z,93455.28
2022-10-18T02:27:05.660Z,93464.34
2022-10-18T02:30:10.065Z,93456.63
2022-10-18T02:33:20.621Z,93456.22
2022-10-18T02:36:28.624Z,93447.09
2022-10-18T02:39:35.557Z,93445.63
2022-10-18T02:42:44.798Z,93446.97
2022-10-18T02:45:47.835Z,93444.09
2022-10-18T02:48:50.822Z,93439.88
2022-10-18T02:51:54.177Z,93436.91
2022-10-18T02:54:57.727Z,93419.00
2022-10-18T02:58:01.358Z,93416.34
2022-10-18T03:01:04.399Z,93424.28
2022-10-18T03:04:08.529Z,93419.69
2022-10-18T03:07:11.632Z,93412.16
2022-10-18T03:10:15.170Z,93388.44
2022-10-18T03:13:18.266Z,93373.03
2022-10-18T03:16:22.394Z,93367.88
2022-10-18T03:19:26.178Z,93376.44
2022-10-18T03:22:30.538Z,93371.28
2022-10-18T03:25:35.176Z,93385.75
2022-10-18T03:28:38.252Z,93384.75
2022-10-18T03:31:41.229Z,93370.50
2022-10-18T03:34:44.907Z,93378.09
2022-10-18T03:37:47.950Z,93381.78
2022-10-18T03:40:51.745Z,93370.78
2022-10-18T03:43:55.351Z,93374.34
2022-10-18T03:46:59.493Z,93361.22
2022-10-18T03:50:02.515Z,93358.53
2022-10-18T03:53:06.500Z,93351.41
2022-10-18T03:56:10.765Z,93329.72
2022-10-18T03:59:14.604Z,93326.78
2022-10-18T04:02:18.474Z,93327.88
2022-10-18T04:05:24.487Z,93324.19
2022-10-18T04:08:28.104Z,93313.19
2022-10-18T04:11:31.288Z,93318.72
2022-10-18T04:14:35.364Z,93322.75
2022-10-18T04:17:40.108Z,93312.75
2022-10-18T04:20:43.025Z,93314.41
2022-10-18T04:23:51.874Z,93291.34
2022-10-18T04:26:55.476Z,93301.88
2022-10-18T04:29:58.835Z,93298.75
2022-10-18T04:33:01.900Z,93285.25
2022-10-18T04:36:05.839Z,93280.09
2022-10-18T04:39:08.736Z,93281.19
2022-10-18T04:42:12.720Z,93268.81
2022-10-18T04:45:15.755Z,93267.13
2022-10-18T04:48:19.741Z,93264.53
2022-10-18T04:51:23.757Z,93267.06
2022-10-18T04:54:28.581Z,93241.00
2022-10-18T04:57:32.576Z,93243.19
2022-10-18T05:00:39.867Z,93234.13
2022-10-18T05:03:43.150Z,93235.16
2022-10-18T05:06:46.472Z,93232.84
2022-10-18T05:09:49.616Z,93229.88
2022-10-18T05:12:52.656Z,93220.97
2022-10-18T05:15:56.006Z,93222.13
2022-10-18T05:18:59.690Z,93215.78
2022-10-18T05:22:02.832Z,93202.72
2022-10-18T05:25:07.618Z,93211.44
2022-10-18T05:28:27.168Z,93204.69
2022-10-18T05:31:34.515Z,93196.16
2022-10-18T05:34:38.108Z,93193.78
2022-10-18T05:37:41.717Z,93178.41
2022-10-18T05:40:45.449Z,93183.00
2022-10-18T05:43:49.191Z,93173.91
2022-10-18T05:46:52.956Z,93168.53
2022-10-18T05:49:56.405Z,93155.06
2022-10-18T05:53:07.003Z,93152.66
2022-10-18T05:56:22.006Z,93139.47
2022-10-18T05:59:26.191Z,93139.56
2022-10-18T06:02:29.056Z,93141.22
2022-10-18T06:05:32.147Z,93132.41
2022-10-18T06:08:37.261Z,93126.47
2022-10-18T06:11:40.903Z,93112.53
2022-10-18T06:14:44.742Z,93121.16
2022-10-18T06:17:48.443Z,93121.75
2022-10-18T06:21:00.140Z,93111.78
2022-10-18T06:24:03.821Z,93098.69
2022-10-18T06:27:09.992Z,93092.00
2022-10-18T06:30:13.824Z,93080.66
2022-10-18T06:33:17.004Z,93081.31
2022-10-18T06:36:24.659Z,93071.22
2022-10-18T06:39:28.119Z,93065.84
2022-10-18T06:42:32.336Z,93065.88
2022-10-18T06:45:36.330Z,93073.94
2022-10-18T06:48:41.069Z,93066.72
2022-10-18T06:51:45.548Z,93059.34
2022-10-18T06:54:48.508Z,93063.50
2022-10-18T06:57:53.920Z,93053.13
2022-10-18T07:00:56.990Z,93052.94
2022-10-18T07:04:00.715Z,93038.72
2022-10-18T07:07:03.759Z,93043.50
2022-10-18T07:10:11.200Z,93039.16
2022-10-18T07:13:33.081Z,93023.03
2022-10-18T07:16:36.657Z,93020.31
2022-10-18T07:19:40.020Z,93021.00
2022-10-18T07:22:44.209Z,93018.06
2022-10-18T07:25:47.905Z,93011.50
2022-10-18T07:28:55.822Z,93009.97
2022-10-18T07:31:59.458Z,93004.88
2022-10-18T07:35:03.710Z,93005.84
2022-10-18T07:38:07.421Z,93002.25
2022-10-18T07:41:12.735Z,92998.16
2022-10-18T07:44:16.558Z,92996.66
2022-10-18T07:47:19.634Z,92997.44
2022-10-18T07:50:23.082Z,93001.59
2022-10-18T07:53:26.817Z,93003.16
2022-10-18T07:56:30.776Z,93004.13
2022-10-18T07:59:34.794Z,92995.69
2022-10-18T08:02:38.604Z,92988.50
2022-10-18T08:05:41.658Z,92987.81
2022-10-18T08:08:45.311Z,92989.78
2022-10-18T08:11:48.593Z,92987.69
2022-10-18T08:14:51.643Z,92989.75
2022-10-18T08:17:55.026Z,92977.09
2022-10-18T08:20:59.863Z,92979.19
2022-10-18T08:24:02.963Z,92978.56
2022-10-18T08:27:06.869Z,92979.09
2022-10-18T08:30:10.637Z,92977.63
2022-10-18T08:33:14.439Z,92972.34
2022-10-18T08:36:18.324Z,92971.44
2022-10-18T08:39:21.428Z,92965.06
2022-10-18T08:42:39.705Z,92958.91
2022-10-18T08:45:44.749Z,92958.72
2022-10-18T08:48:53.045Z,92960.09
2022-10-18T08:51:57.482Z,92958.59
2022-10-18T08:55:12.548Z,92964.75
2022-10-18T08:58:21.604Z,92960.38
2022-10-18T09:01:58.444Z,92970.06
2022-10-18T09:05:06.755Z,92967.03
2022-10-18T09:08:19.692Z,92954.72
2022-10-18T09:11:47.872Z,92954.53
2022-10-18T09:15:22.136Z,92962.16
2022-10-18T09:18:32.091Z,92955.63
2022-10-18T09:21:45.175Z,92959.06
2022-10-18T09:25:13.468Z,92960.56
2022-10-18T09:28:55.354Z,92953.31
2022-10-18T09:32:09.014Z,92950.03
2022-10-18T09:35:22.927Z,92949.56
2022-10-18T09:38:31.939Z,92947.03
2022-10-18T09:41:55.894Z,92950.56
2022-10-18T09:45:15.302Z,92936.22
2022-10-18T09:48:45.613Z,92947.06
2022-10-18T09:51:52.172Z,92933.31
2022-10-18T09:55:02.116Z,92929.59
2022-10-18T09:58:08.673Z,92927.31
2022-10-18T10:01:16.042Z,92930.28
2022-10-18T10:04:19.930Z,92928.25
2022-10-18T10:07:32.573Z,92922.81
2022-10-18T10:10:41.195Z,92929.53
2022-10-18T10:13:45.528Z,92922.69
2022-10-18T10:16:53.173Z,92933.06
2022-10-18T10:20:24.132Z,92933.75
2022-10-18T10:23:33.074Z,92927.72
2022-10-18T10:26:39.892Z,92936.91
2022-10-18T10:29:46.980Z,92936.69
2022-10-18T10:32:52.717Z,92922.00
2022-10-18T10:36:00.926Z,92921.47
2022-10-18T10:39:12.052Z,92925.88
2022-10-18T10:42:16.781Z,92924.09
2022-10-18T10:45:22.873Z,92926.69
2022-10-18T10:48:31.119Z,92916.47
2022-10-18T10:51:41.027Z,92911.81
2022-10-18T10:54:51.357Z,92908.91
2022-10-18T10:57:58.399Z,92914.56
2022-10-18T11:01:21.562Z,92917.00
2022-10-18T11:04:33.968Z,92909.66
2022-10-18T11:07:49.043Z,92908.31
2022-10-18T11:11:23.147Z,92909.47
2022-10-18T11:14:34.746Z,92906.50
2022-10-18T11:17:56.761Z,92902.56
2022-10-18T11:21:14.465Z,92898.50
2022-10-18T11:24:19.015Z,92895.03
2022-10-18T11:27:26.386Z,92884.41
2022-10-18T11:30:52.764Z,92885.69
2022-10-18T11:34:15.978Z,92882.44
2022-10-18T11:37:38.959Z,92884.41
2022-10-18T11:41:06.611Z,92878.19
2022-10-18T11:44:35.172Z,92882.28
2022-10-18T11:47:53.701Z,92869.69
2022-10-18T11:51:10.036Z,92871.66
2022-10-18T11:54:29.442Z,92865.91
2022-10-18T11:57:52.697Z,92878.94
2022-10-18T12:01:28.703Z,92875.78
2022-10-18T12:04:53.126Z,92866.72
2022-10-18T12:08:12.677Z,92865.28
2022-10-18T12:11:26.721Z,92856.34
2022-10-18T12:14:59.225Z,92852.34
2022-10-18T12:18:15.928Z,92842.22
2022-10-18T12:21:25.896Z,92842.22
2022-10-18T12:24:34.535Z,92840.28
2022-10-18T12:28:03.570Z,92840.59
2022-10-18T12:31:31.003Z,92833.81
2022-10-18T12:34:56.366Z,92832.66
2022-10-18T12:38:34.640Z,92828.22
2022-10-18T12:41:42.054Z,92834.91
2022-10-18T12:44:50.397Z,92827.44
2022-10-18T12:48:23.612Z,92820.41
2022-10-18T12:51:31.138Z,92831.56
2022-10-18T12:54:41.399Z,92833.19
2022-10-18T12:58:07.586Z,92827.25
2022-10-18T13:01:16.146Z,92822.59
2022-10-18T13:04:36.693Z,92830.00
2022-10-18T13:07:45.312Z,92834.75
2022-10-18T13:11:10.077Z,92831.22
2022-10-18T13:14:48.311Z,92830.38
2022-10-18T13:18:27.660Z,92828.84
2022-10-18T13:21:45.698Z,92831.41
2022-10-18T13:25:06.077Z,92823.72
2022-10-18T13:28:19.090Z,92834.38
2022-10-18T13:31:39.725Z,92832.25
2022-10-18T13:34:44.066Z,92827.91
2022-10-18T13:38:00.259Z,92825.78
2022-10-18T13:41:09.038Z,92818.28
2022-10-18T13:44:34.945Z,92818.63
2022-10-18T13:47:39.707Z,92822.97
2022-10-18T13:50:45.312Z,92817.78
2022-10-18T13:54:39.608Z,92822.47
2022-10-18T13:58:23.817Z,92821.03
2022-10-18T14:02:30.687Z,92816.94
2022-10-18T14:05:54.583Z,92827.22
2022-10-18T14:09:40.196Z,92829.84
2022-10-18T14:12:55.363Z,92814.03
2022-10-18T14:16:26.794Z,92816.06
2022-10-18T14:19:47.313Z,92814.53
2022-10-18T14:23:14.806Z,92813.69
2022-10-18T14:26:22.128Z,92809.59
2022-10-18T14:29:26.895Z,92808.06
2022-10-18T14:32:37.042Z,92805.31
2022-10-18T14:35:47.829Z,92797.41
2022-10-18T14:39:04.669Z,92793.63
2022-10-18T14:42:22.811Z,92793.34
2022-10-18T14:45:29.577Z,92794.03
2022-10-18T14:48:34.411Z,92792.69
2022-10-18T14:51:41.707Z,92797.66
2022-10-18T14:54:46.445Z,92802.38
2022-10-18T14:57:51.794Z,92803.38
2022-10-18T15:00:56.867Z,92805.28
2022-10-18T15:04:06.852Z,92814.84
2022-10-18T15:07:17.649Z,92820.06
2022-10-18T15:10:34.352Z,92819.66
2022-10-18T15:13:45.444Z,92823.25
2022-10-18T15:16:52.056Z,92818.66
2022-10-18T15:20:47.446Z,92815.53
2022-10-18T15:27:20.197Z,92810.53
2022-10-18T15:30:30.373Z,92804.59
2022-10-18T15:33:37.227Z,92798.19
2022-10-18T15:36:41.047Z,92798.53
2022-10-18T15:39:44.421Z,92798.53
2022-10-18T15:42:47.493Z,92804.94
2022-10-18T15:45:53.436Z,92799.50
2022-10-18T15:49:19.948Z,92793.25
2022-10-18T15:52:42.223Z,92795.28
2022-10-18T15:55:48.932Z,92783.34
2022-10-18T15:58:52.507Z,92787.59
2022-10-18T16:01:56.166Z,92787.59
2022-10-18T16:05:03.843Z,92788.88
2022-10-18T16:08:07.444Z,92786.53
2022-10-18T16:11:19.363Z,92779.91
2022-10-18T16:14:23.348Z,92799.09
2022-10-18T16:17:27.349Z,92794.34
2022-10-18T16:20:31.373Z,92800.56
2022-10-18T16:23:35.037Z,92799.41
2022-10-18T16:26:39.185Z,92795.72
2022-10-18T16:29:42.512Z,92786.16
2022-10-18T16:32:47.310Z,92792.88
2022-10-18T16:35:51.070Z,92792.97
2022-10-18T16:38:56.107Z,92786.53
2022-10-18T16:41:59.762Z,92789.66
2022-10-18T16:45:03.125Z,92792.69
2022-10-18T16:48:06.794Z,92794.31
2022-10-18T16:51:11.682Z,92789.06
2022-10-18T16:54:15.361Z,92787.44
2022-10-18T16:57:18.220Z,92780.00
2022-10-18T17:00:23.656Z,92785.94
2022-10-18T17:03:27.942Z,92782.34
2022-10-18T17:06:33.483Z,92773.28
2022-10-18T17:09:37.573Z,92770.09
2022-10-18T17:12:41.279Z,92774.28
2022-10-18T17:15:44.593Z,92772.72
2022-10-18T17:18:47.598Z,92765.41
2022-10-18T17:21:50.825Z,92757.69
2022-10-18T17:24:53.737Z,92762.97
2022-10-18T17:27:57.817Z,92756.56
2022-10-18T17:31:00.897Z,92767.66
2022-10-18T17:34:05.595Z,92757.41
2022-10-18T17:37:09.654Z,92766.47
2022-10-18T17:40:14.268Z,92756.44
2022-10-18T17:43:17.923Z,92752.34
2022-10-18T17:46:22.006Z,92750.88
2022-10-18T17:49:25.086Z,92749.78
2022-10-18T17:52:28.328Z,92759.03
2022-10-18T17:55:31.275Z,92758.44
2022-10-18T17:58:36.155Z,92752.16
2022-10-18T18:01:39.692Z,92759.16
2022-10-18T18:04:44.059Z,92758.50
2022-10-18T18:07:48.200Z,92768.34
2022-10-18T18:10:56.277Z,92776.50
2022-10-18T18:13:59.925Z,92778.22
2022-10-18T18:17:03.970Z,92775.41
2022-10-18T18:20:08.322Z,92779.56
2022-10-18T18:23:12.263Z,92771.75
2022-10-18T18:26:15.985Z,92785.34
2022-10-18T18:29:19.346Z,92782.41
2022-10-18T18:32:22.584Z,92782.09
2022-10-18T18:35:25.854Z,92779.81
2022-10-18T18:38:28.753Z,92780.84
2022-10-18T18:41:33.430Z,92785.03
2022-10-18T18:44:37.337Z,92785.72
2022-10-18T18:47:40.948Z,92786.28
2022-10-18T18:50:50.474Z,92786.97
2022-10-18T18:53:54.308Z,92783.41
2022-10-18T18:56:58.826Z,92787.19
2022-10-18T19:00:02.474Z,92786.22
2022-10-18T19:03:06.429Z,92783.69
2022-10-18T19:06:14.265Z,92782.06
2022-10-18T19:09:23.482Z,92777.34
2022-10-18T19:12:26.764Z,92781.84
2022-10-18T19:15:31.119Z,92781.56
2022-10-18T19:18:35.908Z,92785.25
2022-10-18T19:21:48.461Z,92774.56
2022-10-18T19:24:52.084Z,92782.63
2022-10-18T19:27:55.339Z,92781.88
2022-10-18T19:30:59.517Z,92773.78
2022-10-18T19:34:08.735Z,92778.84
2022-10-18T19:37:13.456Z,92778.44
2022-10-18T19:40:16.811Z,92781.56
2022-10-18T19:43:19.672Z,92775.31
2022-10-18T19:46:22.728Z,92778.72
2022-10-18T19:49:26.361Z,92780.00
2022-10-18T19:52:29.820Z,92780.97
2022-10-18T19:55:35.523Z,92781.47
2022-10-18T19:58:38.372Z,92787.72
2022-10-18T20:01:41.435Z,92797.34
2022-10-18T20:04:45.180Z,92795.41
2022-10-18T20:07:48.189Z,92791.09
2022-10-18T20:10:51.588Z,92795.50
2022-10-18T20:13:56.660Z,92783.53
2022-10-18T20:17:00.394Z,92788.47
2022-10-18T20:20:04.516Z,92794.94
2022-10-18T20:23:08.145Z,92795.03
2022-10-18T20:26:18.178Z,92801.06
2022-10-18T20:29:25.867Z,92804.56
2022-10-18T20:32:29.970Z,92804.66
2022-10-18T20:35:33.138Z,92802.31
2022-10-18T20:38:38.526Z,92804.75
2022-10-18T20:41:42.277Z,92804.16
2022-10-18T20:44:47.863Z,92801.78
2022-10-18T20:47:51.433Z,92815.03
2022-10-18T20:50:55.443Z,92818.66
2022-10-18T20:54:00.448Z,92813.00
2022-10-18T20:57:04.835Z,92820.38
2022-10-18T21:00:11.941Z,92825.47
2022-10-18T21:03:15.860Z,92829.13
2022-10-18T21:06:22.651Z,92838.47
2022-10-18T21:09:26.209Z,92845.63
2022-10-18T21:12:30.037Z,92849.59
2022-10-18T21:15:34.032Z,92843.56
2022-10-18T21:18:40.872Z,92848.25
2022-10-18T21:21:46.728Z,92854.69
2022-10-18T21:24:51.358Z,92855.78
2022-10-18T21:27:55.658Z,92865.63
2022-10-18T21:31:13.192Z,92860.63
2022-10-18T21:34:18.491Z,92853.91
2022-10-18T21:37:22.215Z,92870.47
2022-10-18T21:40:25.589Z,92861.09
2022-10-18T21:43:28.781Z,92861.72
2022-10-18T21:46:32.774Z,92857.47
2022-10-18T21:49:36.402Z,92860.28
2022-10-18T21:52:40.323Z,92867.59
2022-10-18T21:55:43.851Z,92864.19
2022-10-18T21:58:47.326Z,92868.09
2022-10-18T22:01:52.791Z,92874.03
2022-10-18T22:04:55.821Z,92881.31
2022-10-18T22:07:59.528Z,92887.88
2022-10-18T22:11:03.915Z,92889.50
2022-10-18T22:14:07.572Z,92890.19
2022-10-18T22:17:11.475Z,92892.81
2022-10-18T22:20:15.195Z,92896.81
2022-10-18T22:23:18.447Z,92900.13
2022-10-18T22:26:22.726Z,92902.00
2022-10-18T22:29:26.375Z,92905.13
2022-10-18T22:32:29.314Z,92916.41
2022-10-18T22:35:35.117Z,92899.44
2022-10-18T22:38:39.089Z,92917.19
2022-10-18T22:41:43.906Z,92915.91
2022-10-18T22:44:47.483Z,92918.09
2022-10-18T22:47:51.076Z,92914.44
2022-10-18T22:50:54.749Z,92913.19
2022-10-18T22:53:58.471Z,92914.91
2022-10-18T22:57:02.129Z,92917.47
2022-10-18T23:00:06.774Z,92922.03
2022-10-18T23:03:10.228Z,92921.84
2022-10-18T23:06:22.818Z,92924.09
2022-10-18T23:09:26.641Z,92931.41
2022-10-18T23:12:29.641Z,92939.50
2022-10-18T23:15:33.673Z,92945.44
2022-10-18T23:18:36.953Z,92960.06
2022-10-18T23:21:39.926Z,92963.47
2022-10-18T23:24:43.178Z,92970.41
2022-10-18T23:27:46.669Z,92976.66
2022-10-18T23:30:50.623Z,92987.59
2022-10-18T23:33:56.758Z,92986.59
2022-10-18T23:37:00.320Z,92988.03
2022-10-18T23:40:04.092Z,92988.91
2022-10-18T23:43:07.637Z,92987.81
2022-10-18T23:46:12.410Z,92993.38
2022-10-18T23:49:15.775Z,92994.16
2022-10-18T23:52:18.950Z,92994.81
2022-10-18T23:55:22.585Z,93002.53
2022-10-18T23:58:26.007Z,93000.19
